createdAt,value
2023-04-19T00:00:32.936Z,54.63
2023-04-19T00:03:36.380Z,53.97
2023-04-19T00:06:41.229Z,53.31
2023-04-19T00:09:44.206Z,53.25
2023-04-19T00:12:48.565Z,52.86
2023-04-19T00:15:51.384Z,52.41
2023-04-19T00:18:54.428Z,51.52
2023-04-19T00:21:57.397Z,51.79
2023-04-19T00:25:00.319Z,50.00
2023-04-19T00:28:05.300Z,50.60
2023-04-19T00:31:08.194Z,50.12
2023-04-19T00:34:11.333Z,50.04
2023-04-19T00:37:14.285Z,50.80
2023-04-19T00:40:17.181Z,50.47
2023-04-19T00:43:21.960Z,50.73
2023-04-19T00:46:25.661Z,49.79
2023-04-19T00:49:29.129Z,49.29
2023-04-19T00:52:33.900Z,50.24
2023-04-19T00:55:38.656Z,50.00
2023-04-19T00:58:43.030Z,50.67
2023-04-19T01:01:46.049Z,50.16
2023-04-19T01:04:49.249Z,49.94
2023-04-19T01:07:52.229Z,50.49
2023-04-19T01:10:55.079Z,50.18
2023-04-19T01:13:59.910Z,51.13
2023-04-19T01:17:02.763Z,51.87
2023-04-19T01:20:08.231Z,51.88
2023-04-19T01:23:12.713Z,51.99
2023-04-19T01:26:16.229Z,52.61
2023-04-19T01:29:20.961Z,52.40
2023-04-19T01:32:25.382Z,52.35
2023-04-19T01:35:28.459Z,52.89
2023-04-19T01:38:32.875Z,52.77
2023-04-19T01:41:35.771Z,53.12
2023-04-19T01:44:38.723Z,53.44
2023-04-19T01:47:41.655Z,53.08
2023-04-19T01:50:44.679Z,53.72
2023-04-19T01:53:52.568Z,54.29
2023-04-19T01:56:55.564Z,54.40
2023-04-19T01:59:58.921Z,54.52
2023-04-19T02:03:02.113Z,54.98
2023-04-19T02:06:05.421Z,55.41
2023-04-19T02:09:09.718Z,55.58
2023-04-19T02:12:12.524Z,55.41
2023-04-19T02:15:15.575Z,55.30
2023-04-19T02:18:18.407Z,55.52
2023-04-19T02:21:21.510Z,56.09
2023-04-19T02:24:26.000Z,56.17
2023-04-19T02:27:28.915Z,56.80
2023-04-19T02:30:31.922Z,56.71
2023-04-19T02:33:34.880Z,56.91
2023-04-19T02:36:37.959Z,56.91
2023-04-19T02:39:42.815Z,57.14
2023-04-19T02:42:45.791Z,57.52
2023-04-19T02:45:48.874Z,57.76
2023-04-19T02:48:51.765Z,57.51
2023-04-19T02:51:55.905Z,58.29
2023-04-19T02:55:00.201Z,58.45
2023-04-19T02:58:03.375Z,59.28
2023-04-19T03:01:07.304Z,58.56
2023-04-19T03:04:10.351Z,59.35
2023-04-19T03:07:13.542Z,59.46
2023-04-19T03:10:18.417Z,59.41
2023-04-19T03:13:21.342Z,60.21
2023-04-19T03:16:24.583Z,60.08
2023-04-19T03:19:27.490Z,60.17
2023-04-19T03:22:30.852Z,60.62
2023-04-19T03:25:35.320Z,60.20
2023-04-19T03:28:38.271Z,60.90
2023-04-19T03:31:41.202Z,61.78
2023-04-19T03:34:46.916Z,61.39
2023-04-19T03:37:49.947Z,61.91
2023-04-19T03:40:56.222Z,62.16
2023-04-19T03:43:59.223Z,61.83
2023-04-19T03:47:02.103Z,62.32
2023-04-19T03:50:05.488Z,62.55
2023-04-19T03:53:08.596Z,62.72
2023-04-19T03:56:12.972Z,63.24
2023-04-19T03:59:15.772Z,63.48
2023-04-19T04:02:18.943Z,64.34
2023-04-19T04:05:22.033Z,64.42
2023-04-19T04:08:25.143Z,64.85
2023-04-19T04:11:29.546Z,64.63
2023-04-19T04:14:32.356Z,64.67
2023-04-19T04:17:35.455Z,64.80
2023-04-19T04:20:38.450Z,65.15
2023-04-19T04:23:41.936Z,66.12
2023-04-19T04:26:46.201Z,65.66
2023-04-19T04:29:49.489Z,66.05
2023-04-19T04:32:52.524Z,66.05
2023-04-19T04:35:56.345Z,66.19
2023-04-19T04:39:01.999Z,66.21
2023-04-19T04:42:07.896Z,65.72
2023-04-19T04:45:11.768Z,66.12
2023-04-19T04:48:14.649Z,64.91
2023-04-19T04:51:17.309Z,64.41
2023-04-19T04:54:20.086Z,64.27
2023-04-19T04:57:24.110Z,62.48
2023-04-19T05:00:27.373Z,62.78
2023-04-19T05:03:30.624Z,61.94
2023-04-19T05:06:33.297Z,60.76
2023-04-19T05:09:36.013Z,60.38
2023-04-19T05:15:42.977Z,59.32
2023-04-19T05:18:45.903Z,58.83
2023-04-19T05:21:49.288Z,58.91
2023-04-19T05:24:52.229Z,59.18
2023-04-19T05:27:56.430Z,60.23
2023-04-19T05:31:02.334Z,60.06
2023-04-19T05:34:05.401Z,60.25
2023-04-19T05:37:08.252Z,59.59
2023-04-19T05:40:11.780Z,60.58
2023-04-19T05:43:16.196Z,61.58
2023-04-19T05:46:19.081Z,61.39
2023-04-19T05:49:21.952Z,61.53
2023-04-19T05:52:24.920Z,61.24
2023-04-19T05:55:27.989Z,60.93
2023-04-19T06:05:02.460Z,59.64
2023-04-19T06:08:09.451Z,58.29
2023-04-19T06:11:24.588Z,58.11
2023-04-19T06:14:31.990Z,57.70
2023-04-19T06:17:34.909Z,58.80
2023-04-19T06:20:39.797Z,56.78
2023-04-19T06:23:42.734Z,55.57
2023-04-19T06:26:47.727Z,55.56
2023-04-19T06:29:51.344Z,54.48
2023-04-19T06:32:54.482Z,52.80
2023-04-19T06:35:58.973Z,52.69
2023-04-19T06:39:01.914Z,51.16
2023-04-19T06:42:05.642Z,49.57
2023-04-19T06:45:09.523Z,49.49
2023-04-19T06:48:12.593Z,48.25
2023-04-19T06:51:16.910Z,47.67
2023-04-19T06:54:19.874Z,46.06
2023-04-19T06:57:22.934Z,45.88
2023-04-19T07:00:26.382Z,44.82
2023-04-19T07:03:29.902Z,44.17
2023-04-19T07:06:34.405Z,45.60
2023-04-19T07:09:37.405Z,43.67
2023-04-19T07:12:40.328Z,43.96
2023-04-19T07:15:43.232Z,43.15
2023-04-19T07:18:46.085Z,41.20
2023-04-19T07:21:50.413Z,40.98
2023-04-19T07:24:53.930Z,40.21
2023-04-19T07:27:57.577Z,40.42
2023-04-19T07:31:00.947Z,39.92
2023-04-19T07:34:03.834Z,39.70
2023-04-19T07:37:08.681Z,38.36
2023-04-19T07:40:12.658Z,37.46
2023-04-19T07:43:15.937Z,36.82
2023-04-19T07:46:18.858Z,36.04
2023-04-19T07:49:22.175Z,35.54
2023-04-19T07:52:26.619Z,34.97
2023-04-19T07:55:29.572Z,34.77
2023-04-19T07:58:32.535Z,34.73
2023-04-19T08:01:35.751Z,33.22
2023-04-19T08:04:39.936Z,33.59
2023-04-19T08:07:44.655Z,33.40
2023-04-19T08:10:47.531Z,32.82
2023-04-19T08:14:02.640Z,32.15
2023-04-19T08:20:16.171Z,30.99
2023-04-19T08:23:26.065Z,30.86
2023-04-19T08:26:32.458Z,32.07
2023-04-19T08:29:35.388Z,32.38
2023-04-19T08:32:38.480Z,32.21
2023-04-19T08:35:42.096Z,30.73
2023-04-19T08:38:51.829Z,30.93
2023-04-19T08:42:12.618Z,31.56
2023-04-19T08:45:29.639Z,31.82
2023-04-19T08:48:35.951Z,31.97
2023-04-19T08:51:40.083Z,31.70
2023-04-19T08:54:45.259Z,30.87
2023-04-19T08:57:48.760Z,30.35
2023-04-19T09:00:51.957Z,30.62
2023-04-19T09:07:00.923Z,31.82
2023-04-19T09:10:10.675Z,32.23
2023-04-19T09:13:13.950Z,33.30
2023-04-19T09:16:26.419Z,35.26
2023-04-19T09:19:46.966Z,35.03
2023-04-19T09:23:05.024Z,32.21
2023-04-19T09:26:22.782Z,30.67
2023-04-19T09:29:27.072Z,29.13
2023-04-19T09:32:45.468Z,28.96
2023-04-19T09:35:49.636Z,28.36
2023-04-19T09:38:52.835Z,29.47
2023-04-19T09:41:58.376Z,30.62
2023-04-19T09:45:28.370Z,32.18
2023-04-19T09:48:24.473Z,30.94
2023-04-19T09:51:41.665Z,30.47
2023-04-19T09:54:46.657Z,28.50
2023-04-19T09:57:51.277Z,28.06
2023-04-19T10:01:10.636Z,27.53
2023-04-19T10:04:37.701Z,27.34
2023-04-19T10:07:45.183Z,27.59
2023-04-19T10:10:49.246Z,26.42
2023-04-19T10:13:57.316Z,26.29
2023-04-19T10:17:00.840Z,26.47
2023-04-19T10:20:09.131Z,26.61
2023-04-19T10:23:12.390Z,26.56
2023-04-19T10:26:15.287Z,25.88
2023-04-19T10:29:58.739Z,27.69
2023-04-19T10:33:03.906Z,25.88
2023-04-19T10:36:11.113Z,26.16
2023-04-19T10:39:41.555Z,26.34
2023-04-19T10:43:18.853Z,27.79
2023-04-19T10:46:41.467Z,26.99
2023-04-19T10:49:47.600Z,27.16
2023-04-19T10:52:50.569Z,26.37
2023-04-19T10:55:53.607Z,26.89
2023-04-19T10:59:24.708Z,28.59
2023-04-19T11:02:33.836Z,28.68
2023-04-19T11:06:16.862Z,29.54
2023-04-19T11:09:23.544Z,30.12
2023-04-19T11:12:26.693Z,30.84
2023-04-19T11:15:29.509Z,30.57
2023-04-19T11:18:33.926Z,30.51
2023-04-19T11:21:41.239Z,29.92
2023-04-19T11:24:48.371Z,30.48
2023-04-19T11:27:53.034Z,30.35
2023-04-19T11:30:56.454Z,29.00
2023-04-19T11:34:01.468Z,27.81
2023-04-19T11:37:04.344Z,28.92
2023-04-19T11:40:08.978Z,28.01
2023-04-19T11:43:11.872Z,27.11
2023-04-19T11:46:15.294Z,27.22
2023-04-19T11:49:29.120Z,27.15
2023-04-19T11:52:36.588Z,27.40
2023-04-19T11:55:39.727Z,28.30
2023-04-19T11:58:45.120Z,29.75
2023-04-19T12:01:48.180Z,31.39
2023-04-19T12:04:53.305Z,31.49
2023-04-19T12:08:04.168Z,31.76
2023-04-19T12:11:10.077Z,31.79
2023-04-19T12:14:14.344Z,31.27
2023-04-19T12:17:17.597Z,30.32
2023-04-19T12:20:31.723Z,31.48
2023-04-19T12:23:34.691Z,31.65
2023-04-19T12:26:38.017Z,31.55
2023-04-19T12:29:40.859Z,32.12
2023-04-19T12:32:43.847Z,32.24
2023-04-19T12:35:48.197Z,32.07
2023-04-19T12:38:51.788Z,32.59
2023-04-19T12:41:54.802Z,32.80
2023-04-19T12:44:57.918Z,32.62
2023-04-19T12:48:00.761Z,31.65
2023-04-19T12:51:05.871Z,32.10
2023-04-19T12:54:08.751Z,32.14
2023-04-19T12:57:11.726Z,30.42
2023-04-19T13:00:15.703Z,29.54
2023-04-19T13:03:18.741Z,29.81
2023-04-19T13:06:23.414Z,28.29
2023-04-19T13:09:28.005Z,28.75
2023-04-19T13:12:31.052Z,28.25
2023-04-19T13:15:33.972Z,28.07
2023-04-19T13:18:36.906Z,27.41
2023-04-19T13:21:41.102Z,27.57
2023-04-19T13:24:44.081Z,27.85
2023-04-19T13:27:47.634Z,28.50
2023-04-19T13:30:50.471Z,28.12
2023-04-19T13:33:53.753Z,28.82
2023-04-19T13:36:58.435Z,27.75
2023-04-19T13:40:14.693Z,28.52
2023-04-19T13:43:20.831Z,28.47
2023-04-19T13:46:23.937Z,28.71
2023-04-19T13:49:26.929Z,29.03
2023-04-19T13:52:31.237Z,29.81
2023-04-19T13:55:34.406Z,30.36
2023-04-19T13:58:37.296Z,31.04
2023-04-19T14:01:40.412Z,31.71
2023-04-19T14:04:43.593Z,31.73
2023-04-19T14:07:48.001Z,31.25
2023-04-19T14:10:51.325Z,31.88
2023-04-19T14:13:54.143Z,32.37
2023-04-19T14:16:57.102Z,32.28
2023-04-19T14:19:59.939Z,32.71
2023-04-19T14:23:04.827Z,32.45
2023-04-19T14:26:07.716Z,32.33
2023-04-19T14:29:10.831Z,32.65
2023-04-19T14:32:25.003Z,33.57
2023-04-19T14:35:29.335Z,33.26
2023-04-19T14:38:34.041Z,33.82
2023-04-19T14:41:36.930Z,34.11
2023-04-19T14:44:39.884Z,34.72
2023-04-19T14:47:42.748Z,34.74
2023-04-19T14:50:45.607Z,35.70
2023-04-19T14:53:49.913Z,35.54
2023-04-19T14:56:53.670Z,35.79
2023-04-19T14:59:58.512Z,37.14
2023-04-19T15:03:02.788Z,38.47
2023-04-19T15:06:06.330Z,39.52
2023-04-19T15:09:10.815Z,43.58
2023-04-19T15:12:13.683Z,46.37
2023-04-19T15:15:16.684Z,49.27
2023-04-19T15:18:19.580Z,52.77
2023-04-19T15:21:24.498Z,56.84
2023-04-19T15:24:29.347Z,59.69
2023-04-19T15:27:32.449Z,62.34
2023-04-19T15:30:35.435Z,64.74
2023-04-19T15:33:38.498Z,63.79
2023-04-19T15:36:41.762Z,64.48
2023-04-19T15:39:46.043Z,67.28
2023-04-19T15:42:48.899Z,68.12
2023-04-19T15:45:51.681Z,66.27
2023-04-19T15:48:54.731Z,66.46
2023-04-19T15:51:57.786Z,67.58
2023-04-19T15:55:02.036Z,66.60
2023-04-19T15:58:06.484Z,68.48
2023-04-19T16:01:12.287Z,67.42
2023-04-19T16:04:15.440Z,67.38
2023-04-19T16:07:18.325Z,68.38
2023-04-19T16:10:22.844Z,68.52
2023-04-19T16:13:25.704Z,69.25
2023-04-19T16:16:31.344Z,70.02
2023-04-19T16:19:34.350Z,68.23
2023-04-19T16:22:37.177Z,69.01
2023-04-19T16:25:42.414Z,68.58
2023-04-19T16:28:48.125Z,66.33
2023-04-19T16:31:52.693Z,68.40
2023-04-19T16:34:55.686Z,67.92
2023-04-19T16:38:03.131Z,67.66
2023-04-19T16:41:07.640Z,68.97
2023-04-19T16:44:10.679Z,69.55
2023-04-19T16:47:13.497Z,69.00
2023-04-19T16:50:16.185Z,69.36
2023-04-19T16:53:19.096Z,67.82
2023-04-19T16:56:24.209Z,69.79
2023-04-19T16:59:27.053Z,67.89
2023-04-19T17:02:29.941Z,67.72
2023-04-19T17:05:32.949Z,69.69
2023-04-19T17:08:36.383Z,70.78
2023-04-19T17:11:40.549Z,70.13
2023-04-19T17:14:43.435Z,71.33
2023-04-19T17:17:46.142Z,73.41
2023-04-19T17:20:49.059Z,73.61
2023-04-19T17:23:51.817Z,74.36
2023-04-19T17:26:56.837Z,73.45
2023-04-19T17:29:59.538Z,75.22
2023-04-19T17:33:02.475Z,72.90
2023-04-19T17:36:06.000Z,74.50
2023-04-19T17:39:08.853Z,75.67
2023-04-19T17:42:12.902Z,74.76
2023-04-19T17:45:16.612Z,75.73
2023-04-19T17:48:19.450Z,73.86
2023-04-19T17:51:22.361Z,72.96
2023-04-19T17:54:25.278Z,73.69
2023-04-19T17:57:29.857Z,73.58
2023-04-19T18:00:32.744Z,75.28
2023-04-19T18:03:35.878Z,75.82
2023-04-19T18:06:39.065Z,75.50
2023-04-19T18:09:41.878Z,74.88
2023-04-19T18:12:47.464Z,75.37
2023-04-19T18:15:50.406Z,76.04
2023-04-19T18:18:53.225Z,76.02
2023-04-19T18:21:56.400Z,76.64
2023-04-19T18:24:59.288Z,75.74
2023-04-19T18:28:03.664Z,76.32
2023-04-19T18:31:06.846Z,75.99
2023-04-19T18:34:11.914Z,77.12
2023-04-19T18:37:16.865Z,77.89
2023-04-19T18:40:19.927Z,76.29
2023-04-19T18:43:25.886Z,77.18
2023-04-19T18:46:29.571Z,77.01
2023-04-19T18:49:32.866Z,77.67
2023-04-19T18:52:36.838Z,75.81
2023-04-19T18:55:40.873Z,78.75
2023-04-19T18:58:45.061Z,79.18
2023-04-19T19:01:48.524Z,77.63
2023-04-19T19:04:57.846Z,77.49
2023-04-19T19:08:04.711Z,78.28
2023-04-19T19:11:29.224Z,76.40
2023-04-19T19:14:35.666Z,76.52
2023-04-19T19:17:38.699Z,78.20
2023-04-19T19:20:41.508Z,78.48
2023-04-19T19:23:44.370Z,78.01
2023-04-19T19:26:47.113Z,78.54
2023-04-19T19:29:51.403Z,77.52
2023-04-19T19:32:54.224Z,77.60
2023-04-19T19:35:57.163Z,76.83
2023-04-19T19:38:59.872Z,78.39
2023-04-19T19:42:06.375Z,77.26
2023-04-19T19:45:11.753Z,78.62
2023-04-19T19:48:14.566Z,79.08
2023-04-19T19:51:47.614Z,79.10
2023-04-19T19:54:40.314Z,78.78
2023-04-19T20:00:52.672Z,79.20
2023-04-19T20:03:56.436Z,77.45
2023-04-19T20:10:06.270Z,77.09
2023-04-19T20:13:09.282Z,78.56
2023-04-19T20:16:14.780Z,77.90
2023-04-19T20:19:18.328Z,78.18
2023-04-19T20:22:21.482Z,79.14
2023-04-19T20:25:24.247Z,78.45
2023-04-19T20:28:27.382Z,78.84
2023-04-19T20:31:31.757Z,79.07
2023-04-19T20:34:34.475Z,80.01
2023-04-19T20:37:37.726Z,77.73
2023-04-19T20:40:40.567Z,78.29
2023-04-19T20:43:44.833Z,79.39
2023-04-19T20:46:50.341Z,79.90
2023-04-19T20:49:53.264Z,80.04
2023-04-19T20:52:56.586Z,78.33
2023-04-19T20:56:00.379Z,79.12
2023-04-19T20:59:03.067Z,79.47
2023-04-19T21:02:07.552Z,78.93
2023-04-19T21:05:10.846Z,79.53
2023-04-19T21:08:15.131Z,78.75
2023-04-19T21:11:17.911Z,78.01
2023-04-19T21:14:20.814Z,78.93
2023-04-19T21:17:25.147Z,78.21
2023-04-19T21:20:28.141Z,79.24
2023-04-19T21:23:31.003Z,77.64
2023-04-19T21:26:33.959Z,79.11
2023-04-19T21:29:36.838Z,79.04
2023-04-19T21:32:41.172Z,77.37
2023-04-19T21:35:44.080Z,78.12
2023-04-19T21:38:46.961Z,77.91
2023-04-19T21:41:49.648Z,79.18
2023-04-19T21:44:52.469Z,78.51
2023-04-19T21:47:56.567Z,78.12
2023-04-19T21:50:59.488Z,78.86
2023-04-19T21:54:02.221Z,77.67
2023-04-19T21:57:05.552Z,79.39
2023-04-19T22:00:10.260Z,78.71
2023-04-19T22:03:15.709Z,76.67
2023-04-19T22:06:19.385Z,77.99
2023-04-19T22:09:22.202Z,77.66
2023-04-19T22:12:25.756Z,77.53
2023-04-19T22:15:28.480Z,77.31
2023-04-19T22:18:34.315Z,77.57
2023-04-19T22:21:37.236Z,79.07
2023-04-19T22:24:53.860Z,80.09
2023-04-19T22:28:00.009Z,80.03
2023-04-19T22:31:03.131Z,79.62
2023-04-19T22:34:07.480Z,79.72
2023-04-19T22:37:10.500Z,78.64
2023-04-19T22:40:13.985Z,79.49
2023-04-19T22:43:17.518Z,78.61
2023-04-19T22:46:20.371Z,79.69
2023-04-19T22:49:24.516Z,79.83
2023-04-19T22:52:27.860Z,79.49
2023-04-19T22:55:30.827Z,77.78
2023-04-19T22:58:33.714Z,78.59
2023-04-19T23:01:36.622Z,78.84
2023-04-19T23:04:41.127Z,78.92
2023-04-19T23:07:45.123Z,78.74
2023-04-19T23:10:51.024Z,79.61
2023-04-19T23:13:54.067Z,79.07
2023-04-19T23:16:57.224Z,79.62
2023-04-19T23:20:01.277Z,79.44
2023-04-19T23:23:05.239Z,79.30
2023-04-19T23:26:08.093Z,79.80
2023-04-19T23:29:10.828Z,79.72
2023-04-19T23:32:13.694Z,79.25
2023-04-19T23:35:17.808Z,79.66
2023-04-19T23:38:20.972Z,79.58
2023-04-19T23:41:24.045Z,78.93
2023-04-19T23:44:27.552Z,78.59
2023-04-19T23:47:30.458Z,78.85
2023-04-19T23:50:34.554Z,78.84
2023-04-19T23:53:38.730Z,78.21
2023-04-19T23:56:41.505Z,78.67
2023-04-19T23:59:44.352Z,79.57
